Time;durP1;ratioP1;P1;durP2;ratioP2;P2;SDS_P1;SDS_P2;PMS_P1;PMS_P2;Temp;Humidity;BMP_temperature;BMP_pressure;BME280_temperature;BME280_humidity;BME280_pressure;Samples;Min_cycle;Max_cycle;Signal;HPM_P1;HPM_P2
2023/10/24 00:00:40;;;;;;;5.93;5.32;;;12.40;90.20;;;;;;4981029;28;20054;-63
2023/10/24 00:03:05;;;;;;;6.43;5.07;;;12.40;90.10;;;;;;4983268;28;20031;-62
2023/10/24 00:05:31;;;;;;;6.07;5.47;;;12.40;90.20;;;;;;4981550;28;20080;-60
2023/10/24 00:07:56;;;;;;;5.80;5.30;;;12.40;90.20;;;;;;4982156;28;20049;-63
2023/10/24 00:10:23;;;;;;;7.45;5.43;;;12.40;90.20;;;;;;4983547;28;21815;-60
2023/10/24 00:12:49;;;;;;;6.22;5.43;;;12.40;90.20;;;;;;4979120;28;20129;-61
2023/10/24 00:15:15;;;;;;;5.50;5.00;;;12.40;90.30;;;;;;4982760;28;20121;-62
2023/10/24 00:17:41;;;;;;;5.75;5.25;;;12.40;90.30;;;;;;4982807;28;20045;-61
2023/10/24 00:20:07;;;;;;;6.30;5.70;;;12.50;90.30;;;;;;4981397;28;20046;-63
2023/10/24 00:22:32;;;;;;;5.53;5.03;;;12.50;90.30;;;;;;4982560;28;20473;-62
2023/10/24 00:24:58;;;;;;;6.63;5.93;;;12.50;90.30;;;;;;4980342;28;20121;-61
2023/10/24 00:27:24;;;;;;;6.43;5.40;;;12.50;90.30;;;;;;4980530;28;20412;-63
2023/10/24 00:29:49;;;;;;;6.15;5.55;;;12.50;90.20;;;;;;4981369;28;20040;-62
2023/10/24 00:32:15;;;;;;;6.10;5.30;;;12.50;90.20;;;;;;4982866;28;20040;-63
2023/10/24 00:34:41;;;;;;;7.15;5.80;;;12.50;90.20;;;;;;4982823;28;20496;-62
2023/10/24 00:37:06;;;;;;;7.25;5.72;;;12.50;90.30;;;;;;4980674;28;20093;-62
2023/10/24 00:39:32;;;;;;;5.80;5.20;;;12.50;90.40;;;;;;4978805;28;20069;-61
2023/10/24 00:41:57;;;;;;;6.78;5.38;;;12.50;90.40;;;;;;4982519;28;20045;-62
2023/10/24 00:44:23;;;;;;;5.80;5.20;;;12.50;90.40;;;;;;4981219;28;20479;-63
2023/10/24 00:46:48;;;;;;;5.97;5.38;;;12.50;90.40;;;;;;4986733;28;20046;-62
2023/10/24 00:49:14;;;;;;;5.82;4.85;;;12.50;90.30;;;;;;4985602;28;20510;-62
2023/10/24 00:51:41;;;;;;;6.70;5.57;;;12.60;90.30;;;;;;4987607;28;20054;-63
2023/10/24 00:54:09;;;;;;;5.82;5.30;;;12.60;90.40;;;;;;4988049;28;20573;-61
2023/10/24 00:56:35;;;;;;;5.25;4.75;;;12.50;90.30;;;;;;4989672;28;20035;-62
2023/10/24 00:59:02;;;;;;;6.53;5.18;;;12.60;90.30;;;;;;4989696;28;20049;-63
2023/10/24 01:01:29;;;;;;;6.97;5.32;;;12.60;90.30;;;;;;4984501;28;20054;-63
2023/10/24 01:03:56;;;;;;;7.10;5.65;;;12.60;90.30;;;;;;4986888;28;20039;-63
2023/10/24 01:06:22;;;;;;;10.05;6.13;;;12.60;90.30;;;;;;4985655;28;20030;-62
2023/10/24 01:08:47;;;;;;;7.53;5.85;;;12.60;90.30;;;;;;4985262;28;20089;-63
2023/10/24 01:11:14;;;;;;;6.25;5.65;;;12.60;90.40;;;;;;4983181;28;20046;-62
2023/10/24 01:13:40;;;;;;;8.27;5.60;;;12.60;90.40;;;;;;4985686;28;20026;-63
2023/10/24 01:16:06;;;;;;;7.38;6.03;;;12.60;90.40;;;;;;4985004;28;20121;-61
2023/10/24 01:18:31;;;;;;;8.93;5.75;;;12.60;90.50;;;;;;4986169;28;20038;-61
2023/10/24 01:20:57;;;;;;;7.65;5.20;;;12.60;90.50;;;;;;4988214;28;20490;-61
2023/10/24 01:23:23;;;;;;;7.57;5.93;;;12.60;90.50;;;;;;4989326;28;20054;-62
2023/10/24 01:25:51;;;;;;;6.60;5.60;;;12.60;90.50;;;;;;4988750;28;20034;-62
2023/10/24 01:28:17;;;;;;;7.15;5.97;;;12.60;90.90;;;;;;4988864;28;20038;-62
2023/10/24 01:30:43;;;;;;;6.50;5.60;;;12.60;90.50;;;;;;4988268;28;20038;-62
2023/10/24 01:33:08;;;;;;;7.32;6.10;;;12.70;90.50;;;;;;4987818;28;20045;-62
2023/10/24 01:35:34;;;;;;;6.38;5.78;;;12.70;90.50;;;;;;4988051;28;20034;-62
2023/10/24 01:38:00;;;;;;;6.10;5.50;;;12.70;90.40;;;;;;4989219;28;20130;-63
2023/10/24 01:40:25;;;;;;;9.82;5.93;;;12.70;90.40;;;;;;4988552;28;20534;-62
2023/10/24 01:42:51;;;;;;;6.88;5.75;;;12.70;90.40;;;;;;4989376;28;20034;-63
2023/10/24 01:45:16;;;;;;;7.18;5.90;;;12.70;90.40;;;;;;4989197;28;20069;-63
2023/10/24 01:47:43;;;;;;;6.97;5.93;;;12.70;90.40;;;;;;4988902;28;20046;-62
2023/10/24 01:50:08;;;;;;;6.07;5.47;;;12.70;90.40;;;;;;4988671;28;20464;-63
2023/10/24 01:52:34;;;;;;;6.82;5.90;;;12.70;90.40;;;;;;4987788;28;20101;-62
2023/10/24 01:55:00;;;;;;;7.07;5.90;;;12.70;90.50;;;;;;4988045;28;20508;-62
2023/10/24 01:57:26;;;;;;;8.02;6.10;;;12.70;90.40;;;;;;4987892;28;20094;-62
2023/10/24 01:59:51;;;;;;;6.28;5.63;;;12.70;90.40;;;;;;4988613;28;20525;-60
2023/10/24 02:02:17;;;;;;;7.25;6.05;;;12.70;90.40;;;;;;4988221;28;20210;-61
2023/10/24 02:04:43;;;;;;;9.18;6.38;;;12.70;90.50;;;;;;4987008;28;20049;-61
2023/10/24 02:07:09;;;;;;;7.72;5.90;;;12.70;90.40;;;;;;4988428;28;20619;-63
2023/10/24 02:09:35;;;;;;;6.82;6.13;;;12.70;90.50;;;;;;4987895;28;20034;-61
2023/10/24 02:12:03;;;;;;;7.72;5.68;;;12.60;90.40;;;;;;4986639;28;20407;-63
2023/10/24 02:14:29;;;;;;;10.32;5.80;;;12.60;90.50;;;;;;4985307;28;20118;-60
2023/10/24 02:16:55;;;;;;;14.30;5.78;;;12.60;90.60;;;;;;4986001;28;20696;-62
2023/10/24 02:19:21;;;;;;;9.55;6.00;;;12.60;90.60;;;;;;4984473;28;20046;-62
2023/10/24 02:21:47;;;;;;;9.23;5.70;;;12.60;90.50;;;;;;4984530;28;20038;-62
2023/10/24 02:24:13;;;;;;;8.07;5.13;;;12.60;90.50;;;;;;4984096;28;20117;-63
2023/10/24 02:26:39;;;;;;;9.75;5.97;;;12.60;90.50;;;;;;4985799;28;20133;-61
2023/10/24 02:29:04;;;;;;;6.28;5.68;;;12.70;90.40;;;;;;4983882;28;20477;-62
2023/10/24 02:31:30;;;;;;;8.55;5.53;;;12.60;90.40;;;;;;4984494;28;20084;-63
2023/10/24 02:33:55;;;;;;;8.02;5.88;;;12.60;90.40;;;;;;4982513;28;20034;-62
2023/10/24 02:36:21;;;;;;;7.70;5.50;;;12.60;90.40;;;;;;4985395;28;20117;-62
2023/10/24 02:38:46;;;;;;;6.82;5.45;;;12.60;90.30;;;;;;4983275;28;20062;-62
2023/10/24 02:41:13;;;;;;;6.03;5.43;;;12.60;90.20;;;;;;4986589;28;20039;-63
2023/10/24 02:43:38;;;;;;;6.82;5.43;;;12.60;90.60;;;;;;4983392;28;20560;-63
2023/10/24 02:46:05;;;;;;;5.70;5.10;;;12.60;90.10;;;;;;4984027;28;20310;-62
2023/10/24 02:48:32;;;;;;;6.05;5.40;;;12.50;90.10;;;;;;4985044;28;20033;-63
2023/10/24 02:50:58;;;;;;;8.88;6.00;;;12.50;90.10;;;;;;4985138;28;20113;-62
2023/10/24 02:53:24;;;;;;;7.63;5.60;;;12.50;90.20;;;;;;4986303;28;20034;-63
2023/10/24 02:55:50;;;;;;;7.07;5.90;;;12.50;90.20;;;;;;4987691;28;20089;-62
2023/10/24 02:58:17;;;;;;;8.95;6.05;;;12.40;90.10;;;;;;4987566;28;20540;-61
2023/10/24 03:00:44;;;;;;;6.03;5.43;;;12.40;90.00;;;;;;4985314;28;20042;-63
2023/10/24 03:03:10;;;;;;;10.48;6.22;;;12.40;90.20;;;;;;4987653;28;20088;-62
2023/10/24 03:05:36;;;;;;;6.90;5.90;;;12.40;90.30;;;;;;4987073;28;20044;-62
2023/10/24 03:08:02;;;;;;;6.90;5.50;;;12.30;90.30;;;;;;4986741;28;20034;-62
2023/10/24 03:10:28;;;;;;;7.35;5.85;;;12.30;90.30;;;;;;4982587;28;20502;-61
2023/10/24 03:12:54;;;;;;;8.02;5.88;;;12.30;90.30;;;;;;4986283;28;20041;-63
2023/10/24 03:15:20;;;;;;;7.82;5.97;;;12.30;90.30;;;;;;4987263;28;20041;-63
2023/10/24 03:17:46;;;;;;;5.82;5.30;;;12.30;90.30;;;;;;4987374;28;20038;-62
2023/10/24 03:20:12;;;;;;;8.07;5.32;;;12.30;90.30;;;;;;4985520;28;20385;-63
2023/10/24 03:22:38;;;;;;;8.02;5.03;;;12.30;90.30;;;;;;4986513;28;20031;-62
2023/10/24 03:25:04;;;;;;;5.72;5.22;;;12.30;90.30;;;;;;4986850;28;20417;-63
2023/10/24 03:27:30;;;;;;;6.55;5.20;;;12.20;90.30;;;;;;4987237;28;20038;-62
2023/10/24 03:29:55;;;;;;;10.93;5.30;;;12.20;90.40;;;;;;4987752;28;20042;-63
2023/10/24 03:32:21;;;;;;;5.70;5.07;;;12.30;90.40;;;;;;4987564;28;20518;-63
2023/10/24 03:34:46;;;;;;;5.90;5.25;;;12.30;90.40;;;;;;4986739;28;20062;-63
2023/10/24 03:37:12;;;;;;;7.90;5.35;;;12.20;90.30;;;;;;4987461;28;20034;-62
2023/10/24 03:39:38;;;;;;;7.78;5.40;;;12.20;90.20;;;;;;4986251;28;20038;-61
2023/10/24 03:42:04;;;;;;;6.88;5.72;;;12.20;90.20;;;;;;4986159;28;20042;-62
2023/10/24 03:44:29;;;;;;;6.10;5.10;;;12.20;90.30;;;;;;4986065;28;20526;-61
2023/10/24 03:46:55;;;;;;;5.70;5.07;;;12.20;90.40;;;;;;4987348;28;20038;-62
2023/10/24 03:49:21;;;;;;;8.43;4.93;;;12.20;90.30;;;;;;4987163;28;20105;-62
2023/10/24 03:51:46;;;;;;;6.03;5.32;;;12.20;90.30;;;;;;4985434;28;20497;-61
2023/10/24 03:54:13;;;;;;;12.88;5.15;;;12.20;90.40;;;;;;4984210;28;20045;-63
2023/10/24 03:56:39;;;;;;;6.00;4.47;;;12.20;90.40;;;;;;4986131;28;20073;-61
2023/10/24 03:59:06;;;;;;;5.60;4.80;;;12.20;90.40;;;;;;4985058;28;20062;-62
2023/10/24 04:01:34;;;;;;;7.78;5.60;;;12.20;90.40;;;;;;4985580;28;20035;-63
2023/10/24 04:04:00;;;;;;;7.13;5.07;;;12.20;90.30;;;;;;4985195;28;20146;-63
2023/10/24 04:06:26;;;;;;;5.53;4.97;;;12.20;90.30;;;;;;4984192;28;20113;-61
2023/10/24 04:08:51;;;;;;;5.30;4.80;;;12.20;90.30;;;;;;4985729;28;20034;-62
2023/10/24 04:11:17;;;;;;;6.68;5.10;;;12.20;90.40;;;;;;4981527;28;20033;-62
2023/10/24 04:13:45;;;;;;;5.47;4.60;;;12.20;90.30;;;;;;4986311;28;20046;-62
2023/10/24 04:16:11;;;;;;;6.13;5.03;;;12.20;90.30;;;;;;4985657;28;20470;-63
2023/10/24 04:18:38;;;;;;;6.00;5.15;;;12.20;90.30;;;;;;4984521;28;20041;-63
2023/10/24 04:21:03;;;;;;;5.25;4.72;;;12.20;90.30;;;;;;4986472;28;20038;-63
2023/10/24 04:23:29;;;;;;;5.65;4.53;;;12.20;90.30;;;;;;4986730;28;20034;-63
2023/10/24 04:25:55;;;;;;;6.40;4.85;;;12.20;90.20;;;;;;4986566;28;20039;-60
2023/10/24 04:28:20;;;;;;;6.80;5.07;;;12.20;90.60;;;;;;4986830;28;20497;-63
2023/10/24 04:30:46;;;;;;;7.22;5.63;;;12.10;90.20;;;;;;4985669;28;20042;-63
2023/10/24 04:33:12;;;;;;;6.13;5.40;;;12.10;90.20;;;;;;4986819;28;20113;-63
2023/10/24 04:35:47;;;;;;;6.30;5.28;;;12.10;90.20;;;;;;4986426;28;20043;-63
2023/10/24 04:38:13;;;;;;;7.70;4.80;;;12.10;90.20;;;;;;4986878;28;20046;-62
2023/10/24 04:40:39;;;;;;;6.07;5.55;;;12.10;90.20;;;;;;4985977;28;20453;-62
2023/10/24 04:43:08;;;;;;;7.72;6.35;;;12.10;90.20;;;;;;4986479;28;20039;-63
2023/10/24 04:45:35;;;;;;;7.63;6.90;;;12.10;90.60;;;;;;4985077;28;20061;-62
2023/10/24 04:48:02;;;;;;;9.20;7.18;;;12.10;90.30;;;;;;4986401;28;20457;-62
2023/10/24 04:50:27;;;;;;;8.32;7.47;;;12.00;90.30;;;;;;4985819;28;20066;-61
2023/10/24 04:52:54;;;;;;;9.82;7.30;;;12.10;90.40;;;;;;4986201;28;20165;-62
2023/10/24 04:55:20;;;;;;;8.98;6.10;;;12.10;90.30;;;;;;4985181;28;20112;-62
2023/10/24 04:57:46;;;;;;;6.90;6.13;;;12.10;90.20;;;;;;4986517;28;20282;-61
2023/10/24 05:00:13;;;;;;;8.05;7.25;;;12.00;90.20;;;;;;4982355;28;20568;-63
2023/10/24 05:02:39;;;;;;;8.32;6.88;;;12.00;90.30;;;;;;4983976;28;20034;-62
2023/10/24 05:05:06;;;;;;;9.05;7.20;;;12.00;90.30;;;;;;4986383;28;20035;-61
2023/10/24 05:07:32;;;;;;;7.95;7.15;;;12.00;90.40;;;;;;4986273;28;20041;-62
2023/10/24 05:09:57;;;;;;;8.13;6.70;;;12.00;90.30;;;;;;4986138;28;20035;-62
2023/10/24 05:12:23;;;;;;;7.05;5.90;;;12.00;90.30;;;;;;4982548;28;20038;-62
2023/10/24 05:14:48;;;;;;;6.53;5.93;;;12.10;90.30;;;;;;4985126;28;20046;-62
2023/10/24 05:17:14;;;;;;;7.78;6.05;;;12.00;90.30;;;;;;4986387;28;20101;-62
2023/10/24 05:19:41;;;;;;;7.60;6.13;;;12.00;90.30;;;;;;4985764;28;20084;-61
2023/10/24 05:22:10;;;;;;;7.18;5.80;;;12.00;90.30;;;;;;4985656;28;20046;-61
2023/10/24 05:24:37;;;;;;;8.95;6.32;;;12.00;90.30;;;;;;4985154;28;20090;-63
2023/10/24 05:27:06;;;;;;;8.13;5.82;;;12.00;90.30;;;;;;4986067;28;20043;-62
2023/10/24 05:29:35;;;;;;;8.98;5.88;;;12.00;90.20;;;;;;4985579;28;20049;-62
2023/10/24 05:32:01;;;;;;;10.93;6.68;;;12.00;90.20;;;;;;4988096;28;20514;-62
2023/10/24 05:34:27;;;;;;;10.18;7.47;;;12.00;90.30;;;;;;4989261;28;20080;-62
2023/10/24 05:36:53;;;;;;;8.02;7.20;;;12.00;90.20;;;;;;4989513;28;20038;-62
2023/10/24 05:39:19;;;;;;;8.40;7.32;;;12.00;90.20;;;;;;4989766;28;20038;-63
2023/10/24 05:41:48;;;;;;;8.73;7.82;;;12.00;90.20;;;;;;4989478;28;20132;-62
2023/10/24 05:44:17;;;;;;;7.60;6.80;;;11.90;90.20;;;;;;4989169;28;20034;-63
2023/10/24 05:46:43;;;;;;;8.77;7.45;;;11.90;90.30;;;;;;4988620;28;20034;-62
2023/10/24 05:49:08;;;;;;;10.48;6.88;;;11.90;90.70;;;;;;4989129;28;20267;-62
2023/10/24 05:51:34;;;;;;;8.05;7.07;;;11.90;90.30;;;;;;4989336;28;20038;-62
2023/10/24 05:54:00;;;;;;;10.40;7.38;;;11.90;90.40;;;;;;4989068;28;20034;-61
2023/10/24 05:56:26;;;;;;;10.63;7.03;;;11.90;90.40;;;;;;4988708;28;20116;-63
2023/10/24 05:58:52;;;;;;;9.02;6.72;;;11.90;90.40;;;;;;4988838;28;20038;-62
2023/10/24 06:01:17;;;;;;;6.80;5.97;;;11.80;90.30;;;;;;4988410;28;20412;-60
2023/10/24 06:03:43;;;;;;;6.43;5.72;;;11.80;90.40;;;;;;4986645;28;20414;-60
2023/10/24 06:06:09;;;;;;;9.75;6.43;;;11.80;90.40;;;;;;4987830;28;20483;-63
2023/10/24 06:08:35;;;;;;;9.38;5.72;;;11.80;90.50;;;;;;4988273;28;20560;-62
2023/10/24 06:11:03;;;;;;;7.72;6.18;;;11.80;90.50;;;;;;4985979;28;20042;-61
2023/10/24 06:13:29;;;;;;;13.48;6.88;;;11.80;90.50;;;;;;4988512;28;20031;-60
2023/10/24 06:15:55;;;;;;;11.35;7.30;;;11.80;90.90;;;;;;4988898;28;20041;-61
2023/10/24 06:18:21;;;;;;;9.07;6.75;;;11.80;90.40;;;;;;4988949;28;20534;-62
2023/10/24 06:20:47;;;;;;;11.05;6.60;;;11.80;90.40;;;;;;4988244;28;20069;-61
2023/10/24 06:23:13;;;;;;;9.48;6.70;;;11.70;90.50;;;;;;4988699;28;20510;-62
2023/10/24 06:25:42;;;;;;;12.95;7.30;;;11.70;90.60;;;;;;4988818;28;20042;-62
2023/10/24 06:28:08;;;;;;;10.07;7.38;;;11.70;90.60;;;;;;4988791;28;20042;-62
2023/10/24 06:30:35;;;;;;;7.95;6.50;;;11.60;90.70;;;;;;4987612;28;20038;-62
2023/10/24 06:33:01;;;;;;;11.75;7.32;;;11.60;90.80;;;;;;4988882;28;20454;-61
2023/10/24 06:35:27;;;;;;;10.05;7.40;;;11.60;90.80;;;;;;4988496;28;20042;-62
2023/10/24 06:37:53;;;;;;;10.82;7.18;;;11.60;90.80;;;;;;4988810;28;20093;-62
2023/10/24 06:40:19;;;;;;;8.88;6.93;;;11.60;90.90;;;;;;4988371;28;20505;-62
2023/10/24 06:42:45;;;;;;;9.52;7.28;;;11.60;91.00;;;;;;4986775;28;20618;-62
2023/10/24 06:45:11;;;;;;;9.60;7.57;;;11.70;91.00;;;;;;4988185;28;20038;-63
2023/10/24 06:47:37;;;;;;;8.75;7.03;;;11.70;91.00;;;;;;4988154;28;20548;-62
2023/10/24 06:50:03;;;;;;;9.18;6.97;;;11.70;91.00;;;;;;4988564;28;20035;-62
2023/10/24 06:52:29;;;;;;;10.05;7.40;;;11.80;91.00;;;;;;4988145;28;20049;-61
2023/10/24 06:54:55;;;;;;;13.32;7.78;;;11.80;91.00;;;;;;4988307;28;20050;-62
2023/10/24 06:57:20;;;;;;;10.27;7.40;;;11.80;91.00;;;;;;4987986;28;20553;-62
2023/10/24 06:59:46;;;;;;;11.35;7.93;;;11.90;91.40;;;;;;4988014;28;20038;-62
2023/10/24 07:02:11;;;;;;;9.60;7.70;;;11.90;90.90;;;;;;4988126;28;20042;-62
2023/10/24 07:04:37;;;;;;;9.48;7.88;;;11.90;90.90;;;;;;4987401;28;20513;-61
2023/10/24 07:07:03;;;;;;;10.15;7.32;;;12.10;90.90;;;;;;4988037;28;20578;-62
2023/10/24 07:09:29;;;;;;;11.07;7.78;;;12.00;90.80;;;;;;4985900;28;20121;-62
2023/10/24 07:11:54;;;;;;;10.45;7.70;;;12.00;90.80;;;;;;4981984;28;20035;-62
2023/10/24 07:14:20;;;;;;;8.85;7.55;;;12.00;90.80;;;;;;4987948;28;20034;-61
2023/10/24 07:16:46;;;;;;;9.93;8.07;;;12.00;90.80;;;;;;4987450;28;20157;-62
2023/10/24 07:19:12;;;;;;;9.80;7.43;;;12.00;91.20;;;;;;4988082;28;20038;-62
2023/10/24 07:21:38;;;;;;;9.90;7.35;;;12.10;90.80;;;;;;4988078;28;20358;-62
2023/10/24 07:24:03;;;;;;;10.65;7.25;;;12.10;90.80;;;;;;4987286;28;20561;-62
2023/10/24 07:26:30;;;;;;;13.35;8.20;;;12.10;90.80;;;;;;4986990;28;20038;-62
2023/10/24 07:28:55;;;;;;;8.48;7.30;;;12.20;90.80;;;;;;4987613;28;20137;-62
2023/10/24 07:31:21;;;;;;;12.00;7.55;;;12.10;90.80;;;;;;4987428;28;20160;-62
2023/10/24 07:33:46;;;;;;;11.82;7.57;;;12.20;90.90;;;;;;4987535;28;20124;-63
2023/10/24 07:36:12;;;;;;;10.02;8.15;;;12.30;90.90;;;;;;4988030;28;20042;-61
2023/10/24 07:38:38;;;;;;;11.25;9.23;;;12.20;90.90;;;;;;4986808;28;20035;-60
2023/10/24 07:41:04;;;;;;;11.73;9.25;;;12.20;90.90;;;;;;4987129;28;20049;-61
2023/10/24 07:43:30;;;;;;;15.25;11.02;;;12.30;90.90;;;;;;4986964;28;20034;-62
2023/10/24 07:45:56;;;;;;;11.82;9.20;;;12.30;90.90;;;;;;4987230;28;20120;-62
2023/10/24 07:48:24;;;;;;;12.32;9.52;;;12.30;90.90;;;;;;4987638;28;20402;-62
2023/10/24 07:50:56;;;;;;;13.85;11.50;;;12.30;91.00;;;;;;4987249;28;20873;-62
2023/10/24 07:53:25;;;;;;;13.82;11.45;;;12.30;91.00;;;;;;4986792;28;20038;-62
2023/10/24 07:55:51;;;;;;;13.00;11.52;;;12.40;91.00;;;;;;4987106;28;20038;-63
2023/10/24 07:58:17;;;;;;;13.65;11.70;;;12.40;91.00;;;;;;4987463;28;20041;-62
2023/10/24 08:00:44;;;;;;;14.15;11.57;;;12.40;91.00;;;;;;4986276;28;20327;-62
2023/10/24 08:03:11;;;;;;;12.63;11.15;;;12.40;91.00;;;;;;4985118;28;20092;-60
2023/10/24 08:05:37;;;;;;;12.50;10.65;;;12.40;91.00;;;;;;4986617;28;20049;-62
2023/10/24 08:08:03;;;;;;;12.82;9.68;;;12.40;91.00;;;;;;4988126;28;20528;-62
2023/10/24 08:10:29;;;;;;;11.55;8.75;;;12.50;91.00;;;;;;4983570;28;20031;-63
2023/10/24 08:12:54;;;;;;;11.85;8.60;;;12.50;91.00;;;;;;4987104;28;20035;-63
2023/10/24 08:15:20;;;;;;;10.52;8.95;;;12.50;91.00;;;;;;4986764;28;20041;-62
2023/10/24 08:17:45;;;;;;;13.00;8.75;;;12.40;91.00;;;;;;4987715;28;20085;-62
2023/10/24 08:20:11;;;;;;;10.35;9.07;;;12.40;91.00;;;;;;4987465;28;20045;-62
2023/10/24 08:22:37;;;;;;;11.63;9.30;;;12.40;91.10;;;;;;4986839;28;20517;-62
2023/10/24 08:25:03;;;;;;;11.73;9.15;;;12.50;91.20;;;;;;4987292;28;20133;-63
2023/10/24 08:27:28;;;;;;;10.77;9.68;;;12.50;91.20;;;;;;4987811;28;20043;-63
2023/10/24 08:29:54;;;;;;;13.23;10.45;;;12.50;91.20;;;;;;4987583;28;20516;-63
2023/10/24 08:32:19;;;;;;;14.25;11.55;;;12.50;91.20;;;;;;4987790;28;20471;-61
2023/10/24 08:34:45;;;;;;;16.08;13.40;;;12.50;91.30;;;;;;4986639;28;20042;-63
2023/10/24 08:37:10;;;;;;;18.67;12.60;;;12.50;91.20;;;;;;4987503;28;20042;-63
2023/10/24 08:39:36;;;;;;;15.00;12.57;;;12.50;91.60;;;;;;4987259;28;20031;-61
2023/10/24 08:42:02;;;;;;;16.33;14.52;;;12.60;91.30;;;;;;4988074;28;20073;-62
2023/10/24 08:44:28;;;;;;;21.17;18.00;;;12.60;91.30;;;;;;4986731;28;20045;-62
2023/10/24 08:46:54;;;;;;;21.70;17.95;;;12.60;91.30;;;;;;4988060;28;20105;-63
2023/10/24 08:49:19;;;;;;;21.63;18.17;;;12.60;91.30;;;;;;4987362;28;20034;-63
2023/10/24 08:51:46;;;;;;;23.67;19.70;;;12.70;91.40;;;;;;4987263;28;20406;-63
2023/10/24 08:54:12;;;;;;;24.88;21.45;;;12.60;91.40;;;;;;4987443;28;20395;-63
2023/10/24 08:56:38;;;;;;;29.83;24.30;;;12.70;91.40;;;;;;4986876;28;20365;-63
2023/10/24 08:59:07;;;;;;;26.88;22.52;;;12.70;91.30;;;;;;4987532;28;20151;-63
2023/10/24 09:01:34;;;;;;;24.80;21.38;;;12.70;91.30;;;;;;4987421;28;20125;-63
2023/10/24 09:04:01;;;;;;;24.42;19.80;;;12.70;91.30;;;;;;4987128;28;20080;-64
2023/10/24 09:06:26;;;;;;;22.30;17.27;;;12.70;91.30;;;;;;4988147;28;20442;-64
2023/10/24 09:08:52;;;;;;;18.48;15.38;;;12.70;91.40;;;;;;4991789;28;20027;-62
2023/10/24 09:11:17;;;;;;;18.67;15.10;;;12.70;91.40;;;;;;4987801;28;20095;-63
2023/10/24 09:13:44;;;;;;;16.17;13.15;;;12.70;91.40;;;;;;4991105;28;20690;-63
2023/10/24 09:16:11;;;;;;;15.02;12.30;;;12.70;91.40;;;;;;4988429;28;20667;-62
2023/10/24 09:18:38;;;;;;;13.98;11.15;;;12.70;91.50;;;;;;4988630;28;20027;-64
2023/10/24 09:21:05;;;;;;;14.52;11.85;;;12.70;91.50;;;;;;4990350;28;20819;-64
2023/10/24 09:23:32;;;;;;;14.18;11.73;;;12.80;91.50;;;;;;4990801;28;20556;-62
2023/10/24 09:26:03;;;;;;;16.42;11.20;;;12.70;91.50;;;;;;4990893;28;20092;-62
2023/10/24 09:28:29;;;;;;;15.90;11.05;;;12.70;91.50;;;;;;4990241;28;20053;-64
2023/10/24 09:30:57;;;;;;;13.18;10.57;;;12.70;91.60;;;;;;4990679;28;20465;-63
2023/10/24 09:33:30;;;;;;;13.38;10.43;;;12.70;91.70;;;;;;4990519;28;20034;-63
2023/10/24 09:35:58;;;;;;;13.05;10.52;;;12.70;91.70;;;;;;4991125;28;20073;-63
2023/10/24 09:38:25;;;;;;;14.63;10.88;;;12.70;91.60;;;;;;4990948;28;20375;-64
2023/10/24 09:40:54;;;;;;;14.63;10.70;;;12.70;91.70;;;;;;4990463;28;20502;-64
2023/10/24 09:43:22;;;;;;;12.40;10.38;;;12.70;91.70;;;;;;4990585;28;20050;-64
2023/10/24 09:45:50;;;;;;;14.75;11.60;;;12.70;91.80;;;;;;4990057;28;20139;-64
2023/10/24 09:48:19;;;;;;;15.95;11.55;;;12.70;91.90;;;;;;4990720;28;20434;-64
2023/10/24 09:50:46;;;;;;;13.73;10.63;;;12.70;91.90;;;;;;4989934;28;20042;-64
2023/10/24 09:53:13;;;;;;;13.65;10.25;;;12.70;91.90;;;;;;4990855;28;20066;-64
2023/10/24 09:55:40;;;;;;;14.65;12.02;;;12.80;92.00;;;;;;4990566;28;20483;-64
2023/10/24 09:58:09;;;;;;;16.02;11.07;;;12.80;92.00;;;;;;4990600;28;20038;-64
2023/10/24 10:00:35;;;;;;;15.25;12.02;;;12.80;92.00;;;;;;4989501;28;20054;-64
2023/10/24 10:03:02;;;;;;;13.77;10.75;;;12.80;92.00;;;;;;4990299;28;20038;-64
2023/10/24 10:05:29;;;;;;;13.77;11.30;;;12.80;92.00;;;;;;4990384;28;20387;-64
2023/10/24 10:07:57;;;;;;;16.38;10.25;;;12.80;92.00;;;;;;4990317;28;20038;-63
2023/10/24 10:10:24;;;;;;;12.48;10.70;;;12.80;92.00;;;;;;4988290;28;20036;-64
2023/10/24 10:13:03;;;;;;;19.38;14.30;;;12.80;92.00;;;;;;4988363;28;20047;-63
2023/10/24 10:15:47;;;;;;;18.02;12.88;;;12.80;92.10;;;;;;4989961;28;20038;-64
2023/10/24 10:18:39;;;;;;;13.88;10.55;;;12.80;92.20;;;;;;4990288;28;20588;-63
2023/10/24 10:21:27;;;;;;;13.45;10.88;;;12.80;92.10;;;;;;4988394;28;20038;-65
2023/10/24 10:23:58;;;;;;;12.68;9.82;;;12.80;92.30;;;;;;4987901;28;20425;-65
2023/10/24 10:26:48;;;;;;;13.60;9.23;;;12.80;92.20;;;;;;4990723;28;20385;-64
2023/10/24 10:29:43;;;;;;;10.57;8.68;;;12.90;92.50;;;;;;4989871;28;20034;-64
2023/10/24 10:32:12;;;;;;;12.15;8.55;;;12.90;92.40;;;;;;4989729;28;20046;-64
2023/10/24 10:34:37;;;;;;;12.15;8.93;;;12.90;92.30;;;;;;4989312;28;20042;-64
2023/10/24 10:37:04;;;;;;;14.50;9.95;;;12.90;92.30;;;;;;4989933;28;20042;-64
2023/10/24 10:39:30;;;;;;;12.77;10.07;;;12.90;92.30;;;;;;4989491;28;20410;-64
2023/10/24 10:41:56;;;;;;;11.48;9.70;;;13.00;92.30;;;;;;4990136;28;20027;-65
2023/10/24 10:44:36;;;;;;;12.80;9.52;;;13.10;92.30;;;;;;4989507;28;20111;-64
2023/10/24 10:47:03;;;;;;;10.93;8.85;;;13.10;92.50;;;;;;4989670;28;20560;-64
2023/10/24 10:49:42;;;;;;;9.60;8.32;;;13.10;92.30;;;;;;4989429;28;20038;-64
2023/10/24 10:52:21;;;;;;;11.13;8.50;;;13.10;92.50;;;;;;4989870;28;20505;-64
2023/10/24 10:55:04;;;;;;;11.88;8.43;;;13.10;92.40;;;;;;4988297;28;20088;-62
2023/10/24 10:57:37;;;;;;;9.32;8.02;;;13.20;92.50;;;;;;4988539;28;20037;-64
2023/10/24 11:00:04;;;;;;;9.38;7.72;;;13.20;92.40;;;;;;4989233;28;20030;-62
2023/10/24 11:03:12;;;;;;;7.97;6.97;;;13.20;92.40;;;;;;4988860;28;20034;-64
2023/10/24 11:05:37;;;;;;;12.48;7.80;;;13.20;92.70;;;;;;4989186;28;20572;-64
2023/10/24 11:08:06;;;;;;;10.75;7.70;;;13.30;92.40;;;;;;4989029;28;20537;-64
2023/10/24 11:11:00;;;;;;;9.95;7.10;;;13.30;92.50;;;;;;4985040;28;20074;-63
2023/10/24 11:13:42;;;;;;;9.50;7.88;;;13.40;92.70;;;;;;4988757;28;20114;-64
2023/10/24 11:16:12;;;;;;;9.20;7.32;;;13.40;92.60;;;;;;4989413;28;20038;-63
2023/10/24 11:18:40;;;;;;;8.07;7.10;;;13.50;92.50;;;;;;4988587;28;20058;-63
2023/10/24 11:21:08;;;;;;;8.65;7.00;;;13.50;92.50;;;;;;4989247;28;20039;-64
2023/10/24 11:23:34;;;;;;;8.52;7.40;;;13.60;92.50;;;;;;4986521;28;20038;-64
2023/10/24 11:26:00;;;;;;;10.40;7.47;;;13.60;92.50;;;;;;4987071;28;20062;-64
2023/10/24 11:28:27;;;;;;;7.68;6.55;;;13.70;92.50;;;;;;4987107;28;20039;-64
2023/10/24 11:30:57;;;;;;;8.40;6.55;;;13.70;92.50;;;;;;4987687;28;20074;-64
2023/10/24 11:33:23;;;;;;;8.88;6.80;;;13.80;92.50;;;;;;4988448;28;20581;-63
2023/10/24 11:35:50;;;;;;;10.45;7.20;;;13.80;92.50;;;;;;4987945;28;20038;-64
2023/10/24 11:38:16;;;;;;;9.70;6.25;;;13.90;92.50;;;;;;4989045;28;20417;-63
2023/10/24 11:40:46;;;;;;;9.07;6.80;;;13.90;92.40;;;;;;4987504;28;20038;-64
2023/10/24 11:43:13;;;;;;;8.80;6.97;;;13.90;92.40;;;;;;4988417;28;20045;-63
2023/10/24 11:45:38;;;;;;;7.97;6.50;;;14.00;92.30;;;;;;4979406;28;20038;-62
2023/10/24 11:48:05;;;;;;;10.25;7.00;;;14.10;92.30;;;;;;4988245;28;20035;-64
2023/10/24 11:50:42;;;;;;;13.45;9.55;;;14.10;92.30;;;;;;4987693;28;20039;-64
2023/10/24 11:53:08;;;;;;;12.35;8.40;;;14.10;92.30;;;;;;4988329;28;20042;-64
2023/10/24 11:55:34;;;;;;;14.02;9.48;;;14.10;92.10;;;;;;4988303;28;20117;-63
2023/10/24 11:58:00;;;;;;;10.02;8.32;;;14.20;92.10;;;;;;4988547;28;20728;-62
2023/10/24 12:00:32;;;;;;;11.27;8.40;;;14.20;92.00;;;;;;4987417;28;20137;-64
2023/10/24 12:03:05;;;;;;;9.50;7.53;;;14.20;92.10;;;;;;4987731;28;20042;-63
2023/10/24 12:05:32;;;;;;;9.63;7.10;;;14.20;92.00;;;;;;4987539;28;20117;-63
2023/10/24 12:07:59;;;;;;;7.97;6.70;;;14.20;92.00;;;;;;4988435;28;20062;-64
2023/10/24 12:10:33;;;;;;;8.50;7.57;;;14.20;91.90;;;;;;4984785;28;20045;-64
2023/10/24 12:13:03;;;;;;;10.18;8.43;;;14.20;91.90;;;;;;4987472;28;20034;-64
2023/10/24 12:15:29;;;;;;;10.13;7.72;;;14.20;92.30;;;;;;4986965;28;20043;-64
2023/10/24 12:17:57;;;;;;;9.20;8.20;;;14.20;92.00;;;;;;4987155;28;20417;-63
2023/10/24 12:20:23;;;;;;;10.35;8.68;;;14.20;92.00;;;;;;4987741;28;20042;-64
2023/10/24 12:22:49;;;;;;;11.20;8.13;;;14.20;92.00;;;;;;4987562;28;20035;-64
2023/10/24 12:25:17;;;;;;;8.82;7.63;;;14.20;92.00;;;;;;4987737;28;20509;-63
2023/10/24 12:27:44;;;;;;;8.93;7.43;;;14.20;92.00;;;;;;4987598;28;20486;-64
2023/10/24 12:30:10;;;;;;;10.02;7.45;;;14.20;92.00;;;;;;4986178;28;20050;-64
2023/10/24 12:32:36;;;;;;;9.50;7.90;;;14.30;92.00;;;;;;4984812;28;20034;-63
2023/10/24 12:35:02;;;;;;;9.10;7.15;;;14.30;92.00;;;;;;4986039;28;20049;-63
2023/10/24 12:37:28;;;;;;;10.40;7.30;;;14.30;92.00;;;;;;4987583;28;20074;-63
2023/10/24 12:39:53;;;;;;;10.38;7.55;;;14.40;92.10;;;;;;4986221;28;20062;-64